createdAt,value
2023-01-22T00:00:00.267Z,148314.88
2023-01-22T00:02:26.240Z,148318.63
2023-01-22T00:04:52.516Z,148298.56
2023-01-22T00:07:18.940Z,148304.81
2023-01-22T00:09:45.003Z,148301.06
2023-01-22T00:12:10.829Z,148283.53
2023-01-22T00:14:36.741Z,148292.31
2023-01-22T00:17:02.885Z,148297.31
2023-01-22T00:19:29.184Z,148316.13
2023-01-22T00:21:54.968Z,148321.13
2023-01-22T00:24:21.619Z,148317.38
2023-01-22T00:26:47.469Z,148283.53
2023-01-22T00:29:13.587Z,148301.06
2023-01-22T00:31:39.553Z,148283.53
2023-01-22T00:34:05.608Z,148296.06
2023-01-22T00:36:31.483Z,148316.13
2023-01-22T00:38:57.495Z,148293.56
2023-01-22T00:41:23.865Z,148302.31
2023-01-22T00:43:52.686Z,148307.38
2023-01-22T00:46:20.955Z,148292.31
2023-01-22T00:48:48.914Z,148278.53
2023-01-22T00:51:15.535Z,148258.47
2023-01-22T00:53:43.178Z,148277.28
2023-01-22T00:56:10.920Z,148276.03
2023-01-22T00:58:36.817Z,148281.03
2023-01-22T01:01:03.483Z,148286.03
2023-01-22T01:03:30.959Z,148260.97
2023-01-22T01:06:19.056Z,148283.53
2023-01-22T01:08:46.439Z,148276.03
2023-01-22T01:11:18.559Z,148281.03
2023-01-22T01:13:44.522Z,148288.56
2023-01-22T01:16:14.350Z,148278.53
2023-01-22T01:18:40.716Z,148278.53
2023-01-22T01:21:06.809Z,148301.06
2023-01-22T01:23:33.486Z,148288.56
2023-01-22T01:25:59.365Z,148278.53
2023-01-22T01:28:25.906Z,148274.78
2023-01-22T01:30:51.857Z,148276.03
2023-01-22T01:33:17.776Z,148287.28
2023-01-22T01:35:43.623Z,148303.56
2023-01-22T01:38:09.508Z,148302.31
2023-01-22T01:40:41.238Z,148283.53
2023-01-22T01:43:16.328Z,148283.53
2023-01-22T01:45:42.659Z,148278.53
2023-01-22T01:48:29.331Z,148267.22
2023-01-22T01:51:09.996Z,148284.78
2023-01-22T01:53:36.955Z,148273.53
2023-01-22T01:56:06.818Z,148269.72
2023-01-22T01:58:35.341Z,148278.53
2023-01-22T02:01:07.977Z,148291.06
2023-01-22T02:03:33.911Z,148281.03
2023-01-22T02:05:59.837Z,148284.78
2023-01-22T02:08:25.670Z,148298.56
2023-01-22T02:10:52.712Z,148306.13
2023-01-22T02:13:26.926Z,148296.06
2023-01-22T02:15:53.343Z,148308.63
2023-01-22T02:18:19.212Z,148298.56
2023-01-22T02:20:58.944Z,148281.03
2023-01-22T02:23:25.505Z,148298.56
2023-01-22T02:25:51.865Z,148308.63
2023-01-22T02:28:18.615Z,148311.13
2023-01-22T02:30:45.236Z,148306.13
2023-01-22T02:33:11.379Z,148291.06
2023-01-22T02:35:37.417Z,148303.56
2023-01-22T02:38:03.912Z,148314.88
2023-01-22T02:40:29.804Z,148292.31
2023-01-22T02:42:56.524Z,148298.56
2023-01-22T02:45:23.261Z,148289.81
2023-01-22T02:47:49.656Z,148299.81
2023-01-22T02:50:16.511Z,148292.31
2023-01-22T02:52:42.523Z,148304.81
2023-01-22T02:55:09.120Z,148293.56
2023-01-22T02:57:35.038Z,148321.13
2023-01-22T03:00:01.534Z,148317.38
2023-01-22T03:02:27.442Z,148307.38
2023-01-22T03:05:02.445Z,148284.78
2023-01-22T03:07:41.549Z,148283.53
2023-01-22T03:10:18.416Z,148286.03
2023-01-22T03:13:04.582Z,148296.06
2023-01-22T03:15:49.134Z,148303.56
2023-01-22T03:18:34.433Z,148284.78
2023-01-22T03:21:13.526Z,148286.03
2023-01-22T03:23:39.685Z,148273.53
2023-01-22T03:26:06.074Z,148316.13
2023-01-22T03:28:31.933Z,148281.03
2023-01-22T03:30:57.809Z,148282.28
2023-01-22T03:33:23.833Z,148306.13
2023-01-22T03:35:49.674Z,148319.88
2023-01-22T03:38:15.697Z,148306.13
2023-01-22T03:40:41.890Z,148311.13
2023-01-22T03:43:07.770Z,148307.38
2023-01-22T03:45:34.286Z,148281.03
2023-01-22T03:48:01.565Z,148289.81
2023-01-22T03:50:27.878Z,148313.63
2023-01-22T03:52:54.698Z,148331.16
2023-01-22T03:55:20.500Z,148322.38
2023-01-22T03:57:46.383Z,148312.38
2023-01-22T04:00:13.118Z,148327.41
2023-01-22T04:02:39.670Z,148329.91
2023-01-22T04:05:06.068Z,148346.22
2023-01-22T04:07:31.848Z,148321.13
2023-01-22T04:09:57.695Z,148321.13
2023-01-22T04:12:23.524Z,148309.88
2023-01-22T04:14:49.272Z,148337.41
2023-01-22T04:17:15.187Z,148308.63
2023-01-22T04:19:41.108Z,148313.63
2023-01-22T04:22:06.908Z,148288.56
2023-01-22T04:24:32.678Z,148293.56
2023-01-22T04:26:58.514Z,148329.91
2023-01-22T04:29:24.371Z,148313.63
2023-01-22T04:31:50.218Z,148324.91
2023-01-22T04:34:16.055Z,148313.63
2023-01-22T04:36:41.972Z,148318.63
2023-01-22T04:39:07.748Z,148336.16
2023-01-22T04:41:33.623Z,148336.16
2023-01-22T04:43:59.383Z,148329.91
2023-01-22T04:46:25.314Z,148301.06
2023-01-22T04:48:51.196Z,148322.38
2023-01-22T04:51:17.684Z,148313.63
2023-01-22T04:53:43.476Z,148322.38
2023-01-22T04:56:09.313Z,148322.38
2023-01-22T04:58:35.273Z,148347.47
2023-01-22T05:01:01.138Z,148346.22
2023-01-22T05:03:26.975Z,148356.22
2023-01-22T05:05:52.855Z,148328.66
2023-01-22T05:08:18.713Z,148349.97
2023-01-22T05:10:44.527Z,148354.97
2023-01-22T05:13:10.365Z,148368.78
2023-01-22T05:15:36.225Z,148362.53
2023-01-22T05:18:02.072Z,148366.28
2023-01-22T05:20:27.895Z,148346.22
2023-01-22T05:22:53.724Z,148314.88
2023-01-22T05:25:19.597Z,148338.66
2023-01-22T05:27:45.421Z,148365.03
2023-01-22T05:30:12.395Z,148363.78
2023-01-22T05:32:38.812Z,148372.53
2023-01-22T05:35:05.234Z,148371.28
2023-01-22T05:37:31.962Z,148371.28
2023-01-22T05:39:57.797Z,148390.06
2023-01-22T05:42:24.622Z,148381.31
2023-01-22T05:44:50.426Z,148377.56
2023-01-22T05:47:16.340Z,148357.47
2023-01-22T05:49:42.286Z,148357.47
2023-01-22T05:52:11.093Z,148370.03
2023-01-22T05:54:40.010Z,148376.28
2023-01-22T05:57:06.481Z,148343.72
2023-01-22T05:59:32.364Z,148357.47
2023-01-22T06:01:58.118Z,148358.72
2023-01-22T06:04:24.041Z,148377.56
2023-01-22T06:06:49.885Z,148354.97
2023-01-22T06:09:15.704Z,148372.53
2023-01-22T06:11:41.493Z,148362.53
2023-01-22T06:14:07.277Z,148365.03
2023-01-22T06:16:33.142Z,148363.78
2023-01-22T06:18:58.932Z,148372.53
2023-01-22T06:21:24.713Z,148358.72
2023-01-22T06:23:50.459Z,148329.91
2023-01-22T06:26:16.241Z,148334.91
2023-01-22T06:28:42.090Z,148353.72
2023-01-22T06:31:08.072Z,148365.03
2023-01-22T06:33:34.573Z,148341.22
2023-01-22T06:36:01.048Z,148362.53
2023-01-22T06:38:26.858Z,148348.72
2023-01-22T06:40:54.725Z,148334.91
2023-01-22T06:43:20.842Z,148354.97
2023-01-22T06:45:46.648Z,148357.47
2023-01-22T06:48:12.534Z,148372.53
2023-01-22T06:50:38.363Z,148347.47
2023-01-22T06:53:04.291Z,148361.28
2023-01-22T06:55:30.084Z,148356.22
2023-01-22T06:57:56.726Z,148373.78
2023-01-22T07:00:23.049Z,148373.78
2023-01-22T07:02:49.940Z,148353.72
2023-01-22T07:05:16.221Z,148386.31
2023-01-22T07:07:42.460Z,148378.81
2023-01-22T07:10:09.630Z,148366.28
2023-01-22T07:12:35.637Z,148365.03
2023-01-22T07:15:01.427Z,148354.97
2023-01-22T07:17:27.414Z,148321.13
2023-01-22T07:19:53.289Z,148371.28
2023-01-22T07:22:19.111Z,148352.47
2023-01-22T07:24:44.983Z,148353.72
2023-01-22T07:27:10.835Z,148351.22
2023-01-22T07:29:37.018Z,148382.56
2023-01-22T07:32:02.879Z,148365.03
2023-01-22T07:34:28.760Z,148356.22
2023-01-22T07:36:54.637Z,148378.81
2023-01-22T07:39:20.474Z,148361.28
2023-01-22T07:41:46.451Z,148371.28
2023-01-22T07:44:12.701Z,148402.63
2023-01-22T07:46:38.647Z,148376.28
2023-01-22T07:49:05.644Z,148371.28
2023-01-22T07:51:31.898Z,148391.31
2023-01-22T07:53:57.784Z,148346.22
2023-01-22T07:56:23.686Z,148390.06
2023-01-22T07:58:49.542Z,148375.03
2023-01-22T08:01:16.409Z,148408.88
2023-01-22T08:03:42.511Z,148386.31
2023-01-22T08:06:09.833Z,148393.81
2023-01-22T08:08:35.997Z,148398.88
2023-01-22T08:11:02.183Z,148395.13
2023-01-22T08:13:27.995Z,148413.94
2023-01-22T08:15:56.940Z,148376.28
2023-01-22T08:18:23.095Z,148406.38
2023-01-22T08:20:49.140Z,148420.19
2023-01-22T08:23:15.011Z,148390.06
2023-01-22T08:25:40.838Z,148403.88
2023-01-22T08:28:06.791Z,148411.38
2023-01-22T08:30:45.199Z,148421.44
2023-01-22T08:33:11.868Z,148413.94
2023-01-22T08:35:39.082Z,148433.97
2023-01-22T08:38:04.966Z,148425.19
2023-01-22T08:40:30.824Z,148454.03
2023-01-22T08:42:56.708Z,148461.53
2023-01-22T08:45:22.828Z,148477.84
2023-01-22T08:47:50.704Z,148437.72
2023-01-22T08:50:17.505Z,148469.09
2023-01-22T08:52:43.538Z,148413.94
2023-01-22T08:55:09.475Z,148445.25
2023-01-22T08:57:36.217Z,148416.44
2023-01-22T09:00:04.175Z,148460.28
2023-01-22T09:02:30.195Z,148451.53
2023-01-22T09:04:56.035Z,148470.34
2023-01-22T09:07:22.005Z,148459.03
2023-01-22T09:09:47.953Z,148421.44
2023-01-22T09:12:14.023Z,148411.38
2023-01-22T09:14:39.975Z,148410.13
2023-01-22T09:17:05.882Z,148444.00
2023-01-22T09:19:31.857Z,148440.25
2023-01-22T09:21:57.723Z,148454.03
2023-01-22T09:24:23.643Z,148451.53
2023-01-22T09:26:49.804Z,148440.25
2023-01-22T09:29:15.862Z,148460.28
2023-01-22T09:31:41.746Z,148441.50
2023-01-22T09:34:07.995Z,148476.59
2023-01-22T09:36:33.937Z,148456.53
2023-01-22T09:38:59.878Z,148464.03
2023-01-22T09:41:31.199Z,148454.03
2023-01-22T09:44:03.168Z,148472.84
2023-01-22T09:46:49.328Z,148495.41
2023-01-22T09:49:18.187Z,148481.59
2023-01-22T09:51:49.394Z,148496.66
2023-01-22T09:54:16.669Z,148531.78
2023-01-22T09:56:46.359Z,148540.59
2023-01-22T09:59:25.713Z,148536.78
2023-01-22T10:01:57.961Z,148515.47
2023-01-22T10:04:34.551Z,148545.59
2023-01-22T10:07:03.969Z,148585.72
2023-01-22T10:09:32.148Z,148553.09
2023-01-22T10:11:59.497Z,148529.28
2023-01-22T10:14:28.847Z,148564.41
2023-01-22T10:17:00.295Z,148545.59
2023-01-22T10:19:40.763Z,148550.59
2023-01-22T10:22:14.890Z,148556.91
2023-01-22T10:24:40.827Z,148545.59
2023-01-22T10:27:15.568Z,148545.59
2023-01-22T10:30:06.249Z,148550.59
2023-01-22T10:32:32.437Z,148553.09
2023-01-22T10:35:10.547Z,148564.41
2023-01-22T10:37:59.133Z,148564.41
2023-01-22T10:40:33.102Z,148564.41
2023-01-22T10:43:12.232Z,148549.34
2023-01-22T10:45:49.304Z,148556.91
2023-01-22T10:48:16.545Z,148560.66
2023-01-22T10:50:44.428Z,148543.09
2023-01-22T10:53:35.061Z,148588.22
2023-01-22T10:56:03.298Z,148565.66
2023-01-22T10:58:33.479Z,148580.72
2023-01-22T11:01:06.057Z,148573.22
2023-01-22T11:03:38.575Z,148585.72
2023-01-22T11:06:27.087Z,148584.47
2023-01-22T11:08:59.428Z,148609.59
2023-01-22T11:11:32.422Z,148583.22
2023-01-22T11:14:09.832Z,148615.84
2023-01-22T11:16:38.118Z,148637.16
2023-01-22T11:19:13.520Z,148607.03
2023-01-22T11:21:46.319Z,148638.41
2023-01-22T11:24:30.761Z,148638.41
2023-01-22T11:27:09.380Z,148649.72
2023-01-22T11:29:58.057Z,148648.47
2023-01-22T11:32:36.131Z,148642.19
2023-01-22T11:35:01.976Z,148633.41
2023-01-22T11:38:04.928Z,148609.59
2023-01-22T11:40:34.061Z,148602.03
2023-01-22T11:43:54.785Z,148602.03
2023-01-22T11:46:46.119Z,148597.03
2023-01-22T11:49:29.336Z,148623.34
2023-01-22T11:52:26.069Z,148624.59
2023-01-22T11:55:20.020Z,148653.50
2023-01-22T11:58:06.132Z,148635.91
2023-01-22T12:01:04.187Z,148648.47
2023-01-22T12:03:38.974Z,148607.03
2023-01-22T12:06:20.761Z,148625.84
2023-01-22T12:09:16.492Z,148618.34
2023-01-22T12:11:48.471Z,148612.09
2023-01-22T12:14:32.387Z,148627.16
2023-01-22T12:17:40.592Z,148580.72
2023-01-22T12:20:25.060Z,148550.59
2023-01-22T12:23:13.061Z,148553.09
2023-01-22T12:25:54.348Z,148602.03
2023-01-22T12:28:39.364Z,148597.03
2023-01-22T12:31:14.552Z,148600.78
2023-01-22T12:33:41.564Z,148589.47
2023-01-22T12:36:13.718Z,148614.59
2023-01-22T12:38:50.520Z,148615.84
2023-01-22T12:41:53.656Z,148592.03
2023-01-22T12:44:45.533Z,148590.72
2023-01-22T12:47:23.960Z,148595.78
2023-01-22T12:49:51.802Z,148614.59
2023-01-22T12:52:34.339Z,148617.09
2023-01-22T12:55:01.802Z,148588.22
2023-01-22T12:57:41.125Z,148593.28
2023-01-22T13:00:34.022Z,148622.09
2023-01-22T13:03:30.640Z,148612.09
2023-01-22T13:05:58.882Z,148610.84
2023-01-22T13:08:44.436Z,148594.53
2023-01-22T13:11:26.055Z,148608.28
2023-01-22T13:14:03.298Z,148619.59
2023-01-22T13:16:38.270Z,148666.03
2023-01-22T13:19:25.347Z,148657.25
2023-01-22T13:21:52.094Z,148658.50
2023-01-22T13:24:20.608Z,148663.53
2023-01-22T13:26:59.614Z,148642.19
2023-01-22T13:29:36.818Z,148648.47
2023-01-22T13:32:05.743Z,148642.19
2023-01-22T13:34:31.860Z,148657.25
2023-01-22T13:36:59.468Z,148674.81
2023-01-22T13:39:31.509Z,148658.50
2023-01-22T13:41:59.954Z,148634.66
2023-01-22T13:44:55.929Z,148698.69
2023-01-22T13:47:30.001Z,148683.63
2023-01-22T13:49:56.305Z,148649.72
2023-01-22T13:52:22.602Z,148682.38
2023-01-22T13:54:58.009Z,148679.81
2023-01-22T13:57:23.822Z,148687.38
2023-01-22T14:00:00.650Z,148642.19
2023-01-22T14:02:33.927Z,148648.47
2023-01-22T14:05:00.603Z,148659.75
2023-01-22T14:07:31.724Z,148645.97
2023-01-22T14:10:11.579Z,148671.06
2023-01-22T14:12:37.592Z,148677.31
2023-01-22T14:15:16.914Z,148637.16
2023-01-22T14:17:42.976Z,148652.22
2023-01-22T14:20:09.826Z,148664.81
2023-01-22T14:22:35.670Z,148678.56
2023-01-22T14:25:01.674Z,148652.22
2023-01-22T14:27:48.071Z,148667.31
2023-01-22T14:30:17.184Z,148678.56
2023-01-22T14:32:44.633Z,148679.81
2023-01-22T14:35:19.947Z,148693.63
2023-01-22T14:37:46.653Z,148692.38
2023-01-22T14:40:14.630Z,148664.81
2023-01-22T14:42:41.047Z,148683.63
2023-01-22T14:45:07.960Z,148704.94
2023-01-22T14:47:34.241Z,148691.13
2023-01-22T14:50:01.053Z,148684.88
2023-01-22T14:52:27.170Z,148674.81
2023-01-22T14:54:55.344Z,148682.38
2023-01-22T14:57:22.430Z,148657.25
2023-01-22T14:59:48.268Z,148663.53
2023-01-22T15:02:14.156Z,148658.50
2023-01-22T15:04:41.111Z,148640.94
2023-01-22T15:07:07.361Z,148635.91
2023-01-22T15:09:33.567Z,148599.53
2023-01-22T15:11:59.585Z,148609.59
2023-01-22T15:14:25.577Z,148607.03
2023-01-22T15:16:51.596Z,148619.59
2023-01-22T15:19:18.613Z,148628.41
2023-01-22T15:21:44.953Z,148609.59
2023-01-22T15:24:10.821Z,148619.59
2023-01-22T15:26:37.629Z,148603.28
2023-01-22T15:29:06.207Z,148613.34
2023-01-22T15:31:32.734Z,148617.09
2023-01-22T15:34:01.441Z,148605.78
2023-01-22T15:36:32.447Z,148629.66
2023-01-22T15:38:58.619Z,148578.22
2023-01-22T15:41:32.788Z,148585.72
2023-01-22T15:44:00.830Z,148597.03
2023-01-22T15:46:31.874Z,148584.47
2023-01-22T15:48:59.168Z,148580.72
2023-01-22T15:51:26.569Z,148593.28
2023-01-22T15:53:55.102Z,148595.78
2023-01-22T15:56:23.836Z,148588.22
2023-01-22T15:58:50.663Z,148602.03
2023-01-22T16:01:18.287Z,148592.03
2023-01-22T16:03:45.487Z,148592.03
2023-01-22T16:06:26.222Z,148603.28
2023-01-22T16:08:53.822Z,148588.22
2023-01-22T16:11:21.149Z,148586.97
2023-01-22T16:13:47.427Z,148588.22
2023-01-22T16:16:25.671Z,148578.22
2023-01-22T16:18:52.559Z,148573.22
2023-01-22T16:21:20.002Z,148588.22
2023-01-22T16:23:47.230Z,148592.03
2023-01-22T16:26:16.398Z,148595.78
2023-01-22T16:28:43.665Z,148592.03
2023-01-22T16:31:12.525Z,148585.72
2023-01-22T16:33:42.160Z,148604.53
2023-01-22T16:36:11.630Z,148586.97
2023-01-22T16:38:38.903Z,148608.28
2023-01-22T16:41:25.314Z,148570.66
2023-01-22T16:43:53.355Z,148597.03
2023-01-22T16:46:22.508Z,148598.28
2023-01-22T16:48:48.670Z,148585.72
2023-01-22T16:51:21.598Z,148603.28
2023-01-22T16:53:48.612Z,148579.47
2023-01-22T16:56:15.111Z,148563.16
2023-01-22T16:58:41.310Z,148588.22
2023-01-22T17:01:10.932Z,148584.47
2023-01-22T17:03:37.740Z,148602.03
2023-01-22T17:06:06.779Z,148594.53
2023-01-22T17:08:35.844Z,148605.78
2023-01-22T17:11:01.904Z,148589.47
2023-01-22T17:13:29.261Z,148604.53
2023-01-22T17:15:55.317Z,148583.22
2023-01-22T17:18:21.386Z,148594.53
2023-01-22T17:21:01.360Z,148588.22
2023-01-22T17:23:27.749Z,148595.78
2023-01-22T17:25:54.160Z,148593.28
2023-01-22T17:28:21.375Z,148610.84
2023-01-22T17:30:47.839Z,148603.28
2023-01-22T17:33:14.142Z,148615.84
2023-01-22T17:35:41.335Z,148635.91
2023-01-22T17:38:08.104Z,148625.84
2023-01-22T17:40:36.227Z,148623.34
2023-01-22T17:43:02.326Z,148642.19
2023-01-22T17:45:28.333Z,148607.03
2023-01-22T17:47:54.380Z,148610.84
2023-01-22T17:50:20.303Z,148644.72
2023-01-22T17:52:46.392Z,148627.16
2023-01-22T17:55:13.212Z,148620.84
2023-01-22T17:57:41.367Z,148632.16
2023-01-22T18:00:09.315Z,148604.53
2023-01-22T18:02:35.332Z,148627.16
2023-01-22T18:05:01.647Z,148615.84
2023-01-22T18:07:28.360Z,148623.34
2023-01-22T18:09:54.364Z,148622.09
2023-01-22T18:12:20.352Z,148594.53
2023-01-22T18:14:46.705Z,148610.84
2023-01-22T18:17:12.776Z,148595.78
2023-01-22T18:19:38.695Z,148607.03
2023-01-22T18:22:04.509Z,148588.22
2023-01-22T18:24:32.515Z,148630.91
2023-01-22T18:26:58.486Z,148620.84
2023-01-22T18:29:25.941Z,148629.66
2023-01-22T18:31:52.034Z,148620.84
2023-01-22T18:34:19.570Z,148615.84
2023-01-22T18:36:45.542Z,148632.16
2023-01-22T18:39:15.479Z,148625.84
2023-01-22T18:41:43.110Z,148599.53
2023-01-22T18:44:10.377Z,148624.59
2023-01-22T18:46:38.345Z,148619.59
2023-01-22T18:49:07.321Z,148638.41
2023-01-22T18:51:34.092Z,148627.16
2023-01-22T18:54:02.539Z,148627.16
2023-01-22T18:56:28.430Z,148622.09
2023-01-22T18:58:55.454Z,148639.66
2023-01-22T19:01:25.854Z,148638.41
2023-01-22T19:03:56.088Z,148643.44
2023-01-22T19:06:30.490Z,148638.41
2023-01-22T19:09:13.278Z,148629.66
2023-01-22T19:11:41.847Z,148617.09
2023-01-22T19:14:09.462Z,148618.34
2023-01-22T19:16:36.982Z,148609.59
2023-01-22T19:19:10.403Z,148634.66
2023-01-22T19:21:39.589Z,148643.44
2023-01-22T19:24:07.878Z,148643.44
2023-01-22T19:26:35.929Z,148635.91
2023-01-22T19:29:08.287Z,148629.66
2023-01-22T19:31:39.986Z,148637.16
2023-01-22T19:34:06.448Z,148627.16
2023-01-22T19:36:36.592Z,148649.72
2023-01-22T19:39:06.677Z,148637.16
2023-01-22T19:41:32.903Z,148632.16
2023-01-22T19:44:00.663Z,148640.94
2023-01-22T19:46:27.961Z,148627.16
2023-01-22T19:48:54.433Z,148609.59
2023-01-22T19:51:22.405Z,148630.91
2023-01-22T19:53:48.993Z,148623.34
2023-01-22T19:56:23.702Z,148622.09
2023-01-22T19:58:50.968Z,148633.41
2023-01-22T20:01:17.253Z,148618.34
2023-01-22T20:03:43.839Z,148586.97
2023-01-22T20:06:12.435Z,148609.59
2023-01-22T20:08:38.358Z,148610.84
2023-01-22T20:11:07.311Z,148642.19
2023-01-22T20:13:33.922Z,148622.09
2023-01-22T20:16:00.680Z,148625.84
2023-01-22T20:18:27.448Z,148632.16
2023-01-22T20:21:01.161Z,148618.34
2023-01-22T20:23:28.426Z,148653.50
2023-01-22T20:25:55.113Z,148642.19
2023-01-22T20:28:22.068Z,148644.72
2023-01-22T20:30:59.300Z,148635.91
2023-01-22T20:33:26.424Z,148652.22
2023-01-22T20:36:01.806Z,148625.84
2023-01-22T20:38:28.388Z,148614.59
2023-01-22T20:40:54.363Z,148620.84
2023-01-22T20:43:20.520Z,148632.16
2023-01-22T20:46:01.924Z,148634.66
2023-01-22T20:48:29.838Z,148624.59
2023-01-22T20:50:55.889Z,148639.66
2023-01-22T20:53:22.203Z,148629.66
2023-01-22T20:56:04.088Z,148624.59
2023-01-22T20:58:30.753Z,148625.84
2023-01-22T21:01:18.442Z,148629.66
2023-01-22T21:03:46.775Z,148634.66
2023-01-22T21:06:14.559Z,148605.78
2023-01-22T21:08:41.953Z,148639.66
2023-01-22T21:11:10.770Z,148654.72
2023-01-22T21:13:37.143Z,148649.72
2023-01-22T21:16:08.423Z,148661.00
2023-01-22T21:18:35.522Z,148645.97
2023-01-22T21:21:03.790Z,148644.72
2023-01-22T21:23:29.716Z,148659.75
2023-01-22T21:25:55.812Z,148663.53
2023-01-22T21:28:21.832Z,148668.56
2023-01-22T21:30:47.700Z,148637.16
2023-01-22T21:33:13.685Z,148624.59
2023-01-22T21:35:39.626Z,148618.34
2023-01-22T21:38:05.580Z,148650.97
2023-01-22T21:40:31.378Z,148638.41
2023-01-22T21:43:35.678Z,148635.91
2023-01-22T21:46:19.856Z,148622.09
2023-01-22T21:48:45.772Z,148609.59
2023-01-22T21:51:11.963Z,148633.41
2023-01-22T21:53:37.831Z,148644.72
2023-01-22T21:56:04.185Z,148629.66
2023-01-22T21:58:30.105Z,148618.34
2023-01-22T22:01:03.777Z,148625.84
2023-01-22T22:03:32.016Z,148624.59
2023-01-22T22:06:01.901Z,148618.34
2023-01-22T22:08:36.814Z,148620.84
2023-01-22T22:11:03.918Z,148603.28
2023-01-22T22:13:31.631Z,148620.84
2023-01-22T22:16:04.837Z,148607.03
2023-01-22T22:18:31.099Z,148618.34
2023-01-22T22:21:02.656Z,148629.66
2023-01-22T22:23:29.840Z,148632.16
2023-01-22T22:25:56.415Z,148618.34
2023-01-22T22:28:23.101Z,148637.16
2023-01-22T22:30:49.035Z,148604.53
2023-01-22T22:33:15.217Z,148610.84
2023-01-22T22:35:45.459Z,148608.28
2023-01-22T22:38:11.979Z,148630.91
2023-01-22T22:40:37.932Z,148623.34
2023-01-22T22:43:03.935Z,148610.84
2023-01-22T22:45:29.947Z,148620.84
2023-01-22T22:47:57.459Z,148603.28
2023-01-22T22:50:23.343Z,148612.09
2023-01-22T22:52:49.250Z,148610.84
2023-01-22T22:55:15.162Z,148629.66
2023-01-22T22:57:40.968Z,148623.34
2023-01-22T23:00:11.231Z,148642.19
2023-01-22T23:02:37.308Z,148664.81
2023-01-22T23:05:03.224Z,148632.16
2023-01-22T23:07:29.054Z,148639.66
2023-01-22T23:09:55.749Z,148659.75
2023-01-22T23:12:21.587Z,148635.91
2023-01-22T23:14:47.424Z,148625.84
2023-01-22T23:17:13.334Z,148633.41
2023-01-22T23:19:39.549Z,148639.66
2023-01-22T23:22:05.319Z,148617.09
2023-01-22T23:24:31.314Z,148645.97
2023-01-22T23:26:57.198Z,148637.16
2023-01-22T23:29:23.942Z,148659.75
2023-01-22T23:31:50.441Z,148635.91
2023-01-22T23:34:18.727Z,148645.97
2023-01-22T23:36:46.116Z,148640.94
2023-01-22T23:39:14.981Z,148634.66
2023-01-22T23:41:41.600Z,148640.94
2023-01-22T23:44:07.600Z,148654.72
2023-01-22T23:46:35.667Z,148657.25
2023-01-22T23:49:03.532Z,148640.94
2023-01-22T23:51:29.933Z,148657.25
2023-01-22T23:53:56.337Z,148657.25
2023-01-22T23:56:24.855Z,148658.50
2023-01-22T23:58:54.621Z,148659.75
